createdAt,value
2022-08-05T00:03:45.817Z,16.05
2022-08-05T00:08:00.352Z,16.02
2022-08-05T00:12:03.976Z,15.94
2022-08-05T00:16:13.304Z,15.93
2022-08-05T00:20:20.408Z,15.89
2022-08-05T00:24:24.643Z,15.78
2022-08-05T00:28:29.786Z,15.77
2022-08-05T00:32:32.001Z,15.88
2022-08-05T00:37:10.631Z,15.81
2022-08-05T00:41:16.166Z,15.77
2022-08-05T00:45:28.239Z,15.77
2022-08-05T00:49:51.106Z,15.78
2022-08-05T00:54:02.294Z,15.63
2022-08-05T00:58:05.227Z,15.74
2022-08-05T01:02:07.707Z,15.73
2022-08-05T01:06:15.269Z,15.91
2022-08-05T01:10:27.867Z,15.69
2022-08-05T01:14:37.485Z,15.64
2022-08-05T01:18:48.183Z,15.78
2022-08-05T01:23:14.358Z,15.62
2022-08-05T01:27:50.693Z,15.61
2022-08-05T01:32:12.591Z,15.61
2022-08-05T01:36:28.259Z,15.65
2022-08-05T01:40:33.255Z,15.64
2022-08-05T01:44:36.992Z,15.56
2022-08-05T01:48:39.584Z,15.54
2022-08-05T01:52:49.678Z,15.56
2022-08-05T01:58:11.775Z,15.54
2022-08-05T02:01:25.467Z,15.56
2022-08-05T02:05:34.070Z,15.56
2022-08-05T02:09:36.812Z,15.56
2022-08-05T02:13:53.518Z,15.53
2022-08-05T02:18:30.821Z,15.53
2022-08-05T02:22:39.347Z,15.52
2022-08-05T02:26:51.898Z,15.37
2022-08-05T02:31:14.521Z,15.35
2022-08-05T02:35:27.692Z,15.23
2022-08-05T02:39:41.210Z,15.29
2022-08-05T02:44:06.416Z,15.21
2022-08-05T02:48:12.589Z,15.21
2022-08-05T02:52:29.416Z,15.14
2022-08-05T02:56:34.669Z,15.18
2022-08-05T03:00:37.436Z,15.20
2022-08-05T03:04:43.041Z,15.11
2022-08-05T03:08:46.434Z,15.16
2022-08-05T03:12:54.421Z,15.17
2022-08-05T03:16:57.321Z,15.14
2022-08-05T03:21:01.205Z,15.17
2022-08-05T03:25:32.010Z,15.11
2022-08-05T03:29:44.479Z,15.17
2022-08-05T03:33:52.717Z,15.22
2022-08-05T03:38:00.143Z,15.30
2022-08-05T03:42:02.358Z,15.33
2022-08-05T03:46:05.252Z,15.35
2022-08-05T03:50:10.936Z,15.38
2022-08-05T03:55:51.168Z,15.48
2022-08-05T03:58:47.025Z,15.61
2022-08-05T04:02:57.777Z,15.68
2022-08-05T04:07:03.182Z,15.80
2022-08-05T04:11:08.645Z,15.92
2022-08-05T04:15:15.717Z,16.09
2022-08-05T04:19:18.918Z,16.23
2022-08-05T04:24:04.738Z,16.38
2022-08-05T04:27:56.830Z,16.54
2022-08-05T04:32:00.622Z,16.65
2022-08-05T04:36:15.581Z,16.89
2022-08-05T04:40:24.902Z,17.12
2022-08-05T04:44:29.865Z,17.39
2022-08-05T04:48:32.965Z,17.83
2022-08-05T04:52:35.063Z,18.36
2022-08-05T04:56:37.558Z,18.77
2022-08-05T05:00:40.637Z,19.44
2022-08-05T05:04:44.172Z,19.59
2022-08-05T05:08:50.257Z,19.80
2022-08-05T05:12:52.514Z,20.23
2022-08-05T05:16:54.618Z,20.48
2022-08-05T05:20:59.913Z,20.93
2022-08-05T05:25:16.897Z,21.12
2022-08-05T05:29:19.890Z,21.42
2022-08-05T05:33:24.358Z,21.58
2022-08-05T05:37:37.523Z,21.79
2022-08-05T05:41:54.333Z,21.95
2022-08-05T05:45:57.168Z,22.04
2022-08-05T05:50:01.478Z,22.24
2022-08-05T05:54:04.276Z,22.38
2022-08-05T05:58:06.355Z,22.32
2022-08-05T06:02:08.605Z,22.73
2022-08-05T06:06:12.075Z,23.01
2022-08-05T06:10:14.366Z,23.14
2022-08-05T06:14:17.922Z,23.27
2022-08-05T06:18:21.412Z,23.47
2022-08-05T06:22:35.256Z,23.79
2022-08-05T06:26:37.875Z,24.07
2022-08-05T06:30:40.130Z,24.31
2022-08-05T06:34:43.914Z,24.41
2022-08-05T06:38:53.736Z,24.49
2022-08-05T06:42:56.010Z,24.80
2022-08-05T06:46:58.295Z,24.93
2022-08-05T06:51:09.682Z,25.04
2022-08-05T06:55:13.845Z,25.38
2022-08-05T06:59:17.112Z,25.51
2022-08-05T07:03:19.290Z,25.52
2022-08-05T07:07:24.129Z,25.59
2022-08-05T07:11:49.492Z,25.77
2022-08-05T07:17:57.276Z,25.71
2022-08-05T07:20:38.716Z,26.05
2022-08-05T07:24:43.937Z,26.10
2022-08-05T07:28:54.758Z,26.28
2022-08-05T07:32:57.475Z,26.29
2022-08-05T07:36:59.555Z,26.51
2022-08-05T07:42:09.648Z,26.49
2022-08-05T07:45:56.384Z,27.02
2022-08-05T07:49:54.218Z,27.03
2022-08-05T07:53:56.817Z,27.34
2022-08-05T07:58:03.318Z,27.02
2022-08-05T08:02:16.134Z,27.30
2022-08-05T08:06:19.965Z,27.39
2022-08-05T08:10:23.878Z,27.40
2022-08-05T08:14:28.475Z,27.66
2022-08-05T08:18:30.595Z,27.74
2022-08-05T08:22:33.418Z,27.68
2022-08-05T08:26:35.766Z,27.92
2022-08-05T08:30:47.793Z,28.07
2022-08-05T08:34:52.205Z,27.87
2022-08-05T08:38:55.982Z,28.03
2022-08-05T08:45:17.064Z,28.19
2022-08-05T08:48:05.946Z,28.35
2022-08-05T08:52:05.933Z,28.42
2022-08-05T08:56:12.709Z,28.53
2022-08-05T09:00:15.722Z,29.03
2022-08-05T09:04:22.228Z,28.78
2022-08-05T09:08:33.625Z,28.71
2022-08-05T09:12:36.418Z,28.72
2022-08-05T09:16:39.746Z,28.28
2022-08-05T09:20:43.811Z,28.37
2022-08-05T09:25:02.196Z,28.56
2022-08-05T09:29:19.010Z,28.70
2022-08-05T09:33:23.088Z,28.92
2022-08-05T09:38:17.977Z,28.82
2022-08-05T09:42:04.368Z,29.41
2022-08-05T09:46:12.010Z,29.71
2022-08-05T09:50:38.599Z,29.38
2022-08-05T09:54:55.804Z,29.78
2022-08-05T09:59:04.241Z,29.97
2022-08-05T10:03:11.271Z,29.66
2022-08-05T10:07:19.598Z,29.52
2022-08-05T10:11:23.781Z,30.16
2022-08-05T10:15:39.596Z,29.88
2022-08-05T10:20:04.534Z,30.10
2022-08-05T10:24:10.942Z,29.29
2022-08-05T10:28:19.170Z,29.73
2022-08-05T10:32:52.431Z,29.92
2022-08-05T10:36:55.026Z,30.46
2022-08-05T10:41:02.320Z,30.81
2022-08-05T10:45:20.980Z,30.93
2022-08-05T10:49:32.983Z,30.78
2022-08-05T10:53:38.898Z,30.78
2022-08-05T10:57:46.582Z,30.52
2022-08-05T11:02:14.064Z,31.01
2022-08-05T11:06:17.639Z,30.76
2022-08-05T11:10:27.718Z,31.06
2022-08-05T11:20:09.879Z,30.92
2022-08-05T11:24:05.286Z,31.10
2022-08-05T11:28:17.067Z,30.90
2022-08-05T11:32:30.509Z,31.36
2022-08-05T11:36:52.633Z,31.64
2022-08-05T11:41:34.611Z,31.56
2022-08-05T11:46:14.663Z,31.38
2022-08-05T11:49:49.587Z,31.50
2022-08-05T11:53:54.732Z,31.39
2022-08-05T11:58:10.969Z,31.58
2022-08-05T12:02:23.880Z,31.42
2022-08-05T12:06:36.093Z,31.52
2022-08-05T12:10:45.225Z,31.83
2022-08-05T12:14:48.811Z,31.80
2022-08-05T12:18:53.043Z,31.69
2022-08-05T12:23:10.016Z,31.73
2022-08-05T12:27:25.472Z,31.85
2022-08-05T12:31:43.480Z,31.69
2022-08-05T12:35:51.095Z,31.57
2022-08-05T12:40:03.051Z,31.64
2022-08-05T12:44:11.546Z,31.73
2022-08-05T12:48:27.174Z,31.68
2022-08-05T12:52:37.767Z,31.83
2022-08-05T12:56:50.937Z,31.97
2022-08-05T13:02:03.285Z,31.99
2022-08-05T13:05:16.256Z,32.06
2022-08-05T13:09:28.233Z,31.98
2022-08-05T13:14:06.378Z,32.22
2022-08-05T13:17:55.857Z,31.84
2022-08-05T13:22:01.521Z,32.21
2022-08-05T13:26:06.111Z,32.35
2022-08-05T13:30:35.811Z,32.13
2022-08-05T13:34:38.971Z,32.36
2022-08-05T13:38:43.474Z,32.23
2022-08-05T13:42:45.970Z,32.43
2022-08-05T13:47:02.316Z,32.15
2022-08-05T13:51:16.346Z,32.11
2022-08-05T13:55:42.004Z,32.07
2022-08-05T13:59:57.118Z,32.10
2022-08-05T14:04:20.379Z,31.93
2022-08-05T14:08:27.330Z,31.97
2022-08-05T14:12:32.488Z,32.14
2022-08-05T14:16:35.452Z,32.32
2022-08-05T14:20:37.425Z,32.19
2022-08-05T14:24:40.208Z,32.48
2022-08-05T14:28:51.834Z,32.33
2022-08-05T14:32:56.635Z,32.24
2022-08-05T14:36:59.275Z,32.28
2022-08-05T14:41:05.918Z,32.41
2022-08-05T14:45:10.281Z,32.50
2022-08-05T14:49:12.735Z,32.30
2022-08-05T14:53:15.015Z,32.38
2022-08-05T14:57:17.544Z,32.23
2022-08-05T15:01:24.324Z,32.16
2022-08-05T15:06:07.550Z,32.07
2022-08-05T15:10:09.520Z,32.02
2022-08-05T15:14:12.492Z,32.01
2022-08-05T15:18:35.793Z,31.89
2022-08-05T15:22:40.314Z,31.81
2022-08-05T15:26:46.971Z,31.49
2022-08-05T15:30:53.058Z,31.55
2022-08-05T15:34:57.055Z,31.47
2022-08-05T15:40:41.638Z,31.54
2022-08-05T15:43:21.915Z,31.27
2022-08-05T15:47:25.018Z,31.37
2022-08-05T15:52:13.000Z,31.21
2022-08-05T15:56:03.789Z,31.32
2022-08-05T16:00:09.782Z,31.18
2022-08-05T16:04:13.777Z,31.18
2022-08-05T16:08:20.552Z,31.05
2022-08-05T16:12:26.897Z,31.00
2022-08-05T16:16:29.934Z,31.00
2022-08-05T16:20:32.505Z,30.88
2022-08-05T16:24:40.503Z,30.67
2022-08-05T16:28:44.536Z,30.39
2022-08-05T16:32:46.751Z,30.46
2022-08-05T16:36:50.010Z,30.37
2022-08-05T16:41:00.008Z,30.17
2022-08-05T16:45:05.930Z,30.10
2022-08-05T16:49:26.715Z,30.04
2022-08-05T16:53:32.097Z,29.98
2022-08-05T16:57:53.619Z,29.79
2022-08-05T17:01:57.530Z,29.84
2022-08-05T17:06:00.658Z,29.61
2022-08-05T17:10:03.776Z,29.19
2022-08-05T17:14:06.555Z,28.97
2022-08-05T17:18:14.054Z,28.74
2022-08-05T17:22:17.823Z,28.55
2022-08-05T17:26:28.256Z,28.40
2022-08-05T17:30:31.150Z,28.20
2022-08-05T17:34:34.769Z,27.79
2022-08-05T17:38:37.177Z,27.57
2022-08-05T17:42:50.783Z,27.40
2022-08-05T17:46:54.151Z,27.31
2022-08-05T17:50:56.581Z,27.13
2022-08-05T17:54:58.741Z,26.85
2022-08-05T17:59:00.956Z,26.62
2022-08-05T18:03:04.639Z,26.40
2022-08-05T18:07:12.216Z,26.28
2022-08-05T18:11:24.457Z,26.04
2022-08-05T18:15:36.187Z,25.90
2022-08-05T18:19:40.886Z,25.70
2022-08-05T18:23:47.355Z,25.55
2022-08-05T18:27:52.284Z,25.43
2022-08-05T18:31:55.738Z,25.26
2022-08-05T18:36:03.424Z,25.05
2022-08-05T18:41:50.183Z,24.88
2022-08-05T18:44:35.032Z,24.80
2022-08-05T18:48:41.845Z,24.63
2022-08-05T18:52:51.274Z,24.44
2022-08-05T18:56:54.117Z,24.28
2022-08-05T19:00:57.038Z,24.34
2022-08-05T19:05:02.042Z,24.18
2022-08-05T19:09:23.222Z,24.05
2022-08-05T19:13:29.409Z,24.06
2022-08-05T19:18:09.762Z,23.92
2022-08-05T19:22:01.680Z,23.70
2022-08-05T19:26:03.815Z,23.65
2022-08-05T19:30:07.707Z,23.55
2022-08-05T19:34:12.481Z,23.52
2022-08-05T19:38:26.391Z,23.41
2022-08-05T19:42:36.090Z,23.33
2022-08-05T19:46:39.413Z,23.21
2022-08-05T19:50:42.339Z,23.09
2022-08-05T19:54:44.705Z,23.02
2022-08-05T19:58:53.579Z,22.91
2022-08-05T20:03:00.216Z,22.70
2022-08-05T20:07:13.000Z,22.73
2022-08-05T20:11:18.020Z,22.61
2022-08-05T20:15:48.783Z,22.57
2022-08-05T20:19:44.399Z,22.58
2022-08-05T20:23:50.971Z,22.54
2022-08-05T20:27:53.826Z,22.61
2022-08-05T20:31:59.901Z,22.55
2022-08-05T20:36:02.415Z,22.55
2022-08-05T20:40:05.005Z,22.59
2022-08-05T20:44:18.833Z,22.58
2022-08-05T20:48:32.183Z,22.48
2022-08-05T20:52:35.499Z,22.49
2022-08-05T20:56:41.664Z,22.45
2022-08-05T21:00:54.667Z,22.45
2022-08-05T21:04:59.075Z,22.47
2022-08-05T21:09:06.525Z,22.64
2022-08-05T21:13:15.899Z,22.64
2022-08-05T21:17:21.663Z,22.75
2022-08-05T21:21:24.406Z,22.75
2022-08-05T21:25:34.048Z,22.81
2022-08-05T21:29:40.732Z,22.80
2022-08-05T21:33:43.288Z,22.82
2022-08-05T21:37:53.431Z,22.68
2022-08-05T21:42:01.243Z,22.61
2022-08-05T21:46:05.842Z,22.49
2022-08-05T21:50:10.427Z,22.47
2022-08-05T21:54:14.556Z,22.38
2022-08-05T21:58:16.936Z,22.23
2022-08-05T22:02:21.641Z,22.11
2022-08-05T22:06:34.721Z,21.90
2022-08-05T22:10:38.006Z,21.80
2022-08-05T22:14:40.926Z,21.63
2022-08-05T22:18:49.158Z,21.55
2022-08-05T22:23:17.087Z,21.44
2022-08-05T22:28:09.620Z,21.26
2022-08-05T22:32:03.328Z,21.21
2022-08-05T22:36:05.872Z,21.11
2022-08-05T22:40:09.283Z,21.03
2022-08-05T22:44:11.895Z,20.86
2022-08-05T22:48:14.580Z,20.64
2022-08-05T22:52:32.495Z,20.71
2022-08-05T22:56:40.056Z,20.65
2022-08-05T23:00:42.759Z,20.69
2022-08-05T23:04:51.921Z,20.50
2022-08-05T23:08:54.529Z,20.38
2022-08-05T23:12:56.826Z,20.33
2022-08-05T23:17:24.283Z,20.32
2022-08-05T23:21:42.376Z,20.26
2022-08-05T23:25:53.631Z,20.23
2022-08-05T23:30:00.928Z,20.29
2022-08-05T23:34:06.762Z,20.35
2022-08-05T23:38:12.117Z,20.36
2022-08-05T23:42:29.274Z,20.29
2022-08-05T23:46:32.148Z,20.32
2022-08-05T23:50:34.230Z,20.34
2022-08-05T23:54:38.700Z,20.38
2022-08-05T23:58:40.969Z,20.42
